sensor_id;sensor_type;location;lat;lon;timestamp;P1;durP1;ratioP1;P2;durP2;ratioP2
68247;SDS011;55064;49.636;12.164;2023-04-06T00:01:18;9.80;;;3.83;;
68247;SDS011;55064;49.636;12.164;2023-04-06T00:03:43;8.73;;;4.10;;
68247;SDS011;55064;49.636;12.164;2023-04-06T00:06:10;8.73;;;3.97;;
68247;SDS011;55064;49.636;12.164;2023-04-06T00:08:35;11.57;;;4.80;;
68247;SDS011;55064;49.636;12.164;2023-04-06T00:11:01;10.13;;;3.67;;
68247;SDS011;55064;49.636;12.164;2023-04-06T00:13:26;8.75;;;3.80;;
68247;SDS011;55064;49.636;12.164;2023-04-06T00:15:52;9.30;;;3.67;;
68247;SDS011;55064;49.636;12.164;2023-04-06T00:18:17;9.03;;;3.50;;
68247;SDS011;55064;49.636;12.164;2023-04-06T00:20:44;8.60;;;3.35;;
68247;SDS011;55064;49.636;12.164;2023-04-06T00:23:10;7.90;;;3.30;;
68247;SDS011;55064;49.636;12.164;2023-04-06T00:25:37;9.07;;;3.63;;
68247;SDS011;55064;49.636;12.164;2023-04-06T00:28:04;9.52;;;3.72;;
68247;SDS011;55064;49.636;12.164;2023-04-06T00:33:00;9.93;;;4.00;;
68247;SDS011;55064;49.636;12.164;2023-04-06T00:35:29;10.33;;;3.60;;
68247;SDS011;55064;49.636;12.164;2023-04-06T00:37:55;10.43;;;3.75;;
68247;SDS011;55064;49.636;12.164;2023-04-06T00:40:21;10.52;;;4.07;;
68247;SDS011;55064;49.636;12.164;2023-04-06T00:42:49;8.70;;;3.53;;
68247;SDS011;55064;49.636;12.164;2023-04-06T00:45:17;8.18;;;4.00;;
68247;SDS011;55064;49.636;12.164;2023-04-06T00:47:42;8.70;;;3.67;;
68247;SDS011;55064;49.636;12.164;2023-04-06T00:50:14;8.53;;;3.67;;
68247;SDS011;55064;49.636;12.164;2023-04-06T00:52:39;10.05;;;4.22;;
68247;SDS011;55064;49.636;12.164;2023-04-06T00:55:05;9.37;;;4.07;;
68247;SDS011;55064;49.636;12.164;2023-04-06T00:57:31;10.40;;;4.43;;
68247;SDS011;55064;49.636;12.164;2023-04-06T00:59:56;10.23;;;4.03;;
68247;SDS011;55064;49.636;12.164;2023-04-06T01:02:23;11.00;;;4.23;;
68247;SDS011;55064;49.636;12.164;2023-04-06T01:04:51;10.68;;;4.22;;
68247;SDS011;55064;49.636;12.164;2023-04-06T01:07:20;9.30;;;4.18;;
68247;SDS011;55064;49.636;12.164;2023-04-06T01:09:45;10.33;;;4.23;;
68247;SDS011;55064;49.636;12.164;2023-04-06T01:12:10;9.38;;;3.75;;
68247;SDS011;55064;49.636;12.164;2023-04-06T01:14:36;10.50;;;3.80;;
68247;SDS011;55064;49.636;12.164;2023-04-06T01:17:01;10.13;;;4.43;;
68247;SDS011;55064;49.636;12.164;2023-04-06T01:19:27;9.10;;;4.13;;
68247;SDS011;55064;49.636;12.164;2023-04-06T01:21:53;9.98;;;4.50;;
68247;SDS011;55064;49.636;12.164;2023-04-06T01:24:20;11.87;;;4.97;;
68247;SDS011;55064;49.636;12.164;2023-04-06T01:26:48;11.63;;;5.07;;
68247;SDS011;55064;49.636;12.164;2023-04-06T01:29:13;13.05;;;5.10;;
68247;SDS011;55064;49.636;12.164;2023-04-06T01:31:40;11.90;;;4.93;;
68247;SDS011;55064;49.636;12.164;2023-04-06T01:34:06;10.57;;;4.63;;
68247;SDS011;55064;49.636;12.164;2023-04-06T01:36:31;14.70;;;5.33;;
68247;SDS011;55064;49.636;12.164;2023-04-06T01:38:58;10.10;;;4.30;;
68247;SDS011;55064;49.636;12.164;2023-04-06T01:41:23;11.63;;;5.07;;
68247;SDS011;55064;49.636;12.164;2023-04-06T01:43:48;11.30;;;4.77;;
68247;SDS011;55064;49.636;12.164;2023-04-06T01:46:15;10.27;;;4.28;;
68247;SDS011;55064;49.636;12.164;2023-04-06T01:48:42;11.43;;;4.90;;
68247;SDS011;55064;49.636;12.164;2023-04-06T01:51:08;11.93;;;4.78;;
68247;SDS011;55064;49.636;12.164;2023-04-06T01:53:34;12.43;;;4.63;;
68247;SDS011;55064;49.636;12.164;2023-04-06T01:56:00;12.13;;;4.90;;
68247;SDS011;55064;49.636;12.164;2023-04-06T01:58:26;10.87;;;5.17;;
68247;SDS011;55064;49.636;12.164;2023-04-06T02:00:52;12.82;;;5.35;;
68247;SDS011;55064;49.636;12.164;2023-04-06T02:03:17;13.90;;;5.80;;
68247;SDS011;55064;49.636;12.164;2023-04-06T02:05:43;11.77;;;5.60;;
68247;SDS011;55064;49.636;12.164;2023-04-06T02:08:08;12.77;;;5.83;;
68247;SDS011;55064;49.636;12.164;2023-04-06T02:10:34;11.77;;;5.30;;
68247;SDS011;55064;49.636;12.164;2023-04-06T02:13:06;13.15;;;5.93;;
68247;SDS011;55064;49.636;12.164;2023-04-06T02:15:31;13.57;;;5.90;;
68247;SDS011;55064;49.636;12.164;2023-04-06T02:17:58;12.53;;;6.07;;
68247;SDS011;55064;49.636;12.164;2023-04-06T02:20:24;12.00;;;5.32;;
68247;SDS011;55064;49.636;12.164;2023-04-06T02:22:51;11.65;;;5.10;;
68247;SDS011;55064;49.636;12.164;2023-04-06T02:25:17;11.37;;;5.23;;
68247;SDS011;55064;49.636;12.164;2023-04-06T02:27:43;11.48;;;5.07;;
68247;SDS011;55064;49.636;12.164;2023-04-06T02:30:08;13.30;;;4.90;;
68247;SDS011;55064;49.636;12.164;2023-04-06T02:32:36;10.98;;;4.90;;
68247;SDS011;55064;49.636;12.164;2023-04-06T02:35:04;14.35;;;5.38;;
68247;SDS011;55064;49.636;12.164;2023-04-06T02:37:30;10.88;;;4.88;;
68247;SDS011;55064;49.636;12.164;2023-04-06T02:39:55;13.40;;;5.67;;
68247;SDS011;55064;49.636;12.164;2023-04-06T02:42:21;11.80;;;5.23;;
68247;SDS011;55064;49.636;12.164;2023-04-06T02:44:49;12.02;;;5.10;;
68247;SDS011;55064;49.636;12.164;2023-04-06T02:47:14;10.80;;;5.30;;
68247;SDS011;55064;49.636;12.164;2023-04-06T02:49:40;13.60;;;5.70;;
68247;SDS011;55064;49.636;12.164;2023-04-06T02:52:06;11.52;;;5.28;;
68247;SDS011;55064;49.636;12.164;2023-04-06T02:54:31;12.30;;;5.23;;
68247;SDS011;55064;49.636;12.164;2023-04-06T02:56:58;14.93;;;5.77;;
68247;SDS011;55064;49.636;12.164;2023-04-06T02:59:23;13.70;;;5.70;;
68247;SDS011;55064;49.636;12.164;2023-04-06T03:04:17;12.73;;;5.30;;
68247;SDS011;55064;49.636;12.164;2023-04-06T03:06:43;13.27;;;5.95;;
68247;SDS011;55064;49.636;12.164;2023-04-06T03:09:10;11.53;;;5.17;;
68247;SDS011;55064;49.636;12.164;2023-04-06T03:11:36;12.90;;;5.63;;
68247;SDS011;55064;49.636;12.164;2023-04-06T03:14:01;11.53;;;6.00;;
68247;SDS011;55064;49.636;12.164;2023-04-06T03:16:28;10.80;;;4.97;;
68247;SDS011;55064;49.636;12.164;2023-04-06T03:18:53;10.65;;;5.18;;
68247;SDS011;55064;49.636;12.164;2023-04-06T03:21:19;10.17;;;4.73;;
68247;SDS011;55064;49.636;12.164;2023-04-06T03:23:45;12.57;;;5.70;;
68247;SDS011;55064;49.636;12.164;2023-04-06T03:26:10;12.02;;;5.47;;
68247;SDS011;55064;49.636;12.164;2023-04-06T03:28:38;15.33;;;6.00;;
68247;SDS011;55064;49.636;12.164;2023-04-06T03:31:05;12.25;;;5.30;;
68247;SDS011;55064;49.636;12.164;2023-04-06T03:33:33;12.30;;;5.65;;
68247;SDS011;55064;49.636;12.164;2023-04-06T03:35:59;13.85;;;5.60;;
68247;SDS011;55064;49.636;12.164;2023-04-06T03:38:26;12.13;;;5.57;;
68247;SDS011;55064;49.636;12.164;2023-04-06T03:40:52;14.18;;;5.82;;
68247;SDS011;55064;49.636;12.164;2023-04-06T03:43:17;13.57;;;5.90;;
68247;SDS011;55064;49.636;12.164;2023-04-06T03:45:44;13.13;;;5.77;;
68247;SDS011;55064;49.636;12.164;2023-04-06T03:48:09;15.00;;;6.30;;
68247;SDS011;55064;49.636;12.164;2023-04-06T03:50:43;12.95;;;6.25;;
68247;SDS011;55064;49.636;12.164;2023-04-06T03:53:25;14.98;;;6.45;;
68247;SDS011;55064;49.636;12.164;2023-04-06T03:58:36;14.75;;;6.78;;
68247;SDS011;55064;49.636;12.164;2023-04-06T04:01:02;16.30;;;6.80;;
68247;SDS011;55064;49.636;12.164;2023-04-06T04:09:05;14.73;;;6.75;;
68247;SDS011;55064;49.636;12.164;2023-04-06T04:14:34;15.30;;;6.85;;
68247;SDS011;55064;49.636;12.164;2023-04-06T04:17:02;15.23;;;6.87;;
68247;SDS011;55064;49.636;12.164;2023-04-06T04:19:40;14.65;;;6.47;;
68247;SDS011;55064;49.636;12.164;2023-04-06T04:22:13;16.33;;;6.72;;
68247;SDS011;55064;49.636;12.164;2023-04-06T04:34:20;13.75;;;5.68;;
68247;SDS011;55064;49.636;12.164;2023-04-06T04:36:46;13.73;;;6.10;;
68247;SDS011;55064;49.636;12.164;2023-04-06T04:45:01;15.67;;;6.90;;
68247;SDS011;55064;49.636;12.164;2023-04-06T04:47:26;15.25;;;7.50;;
68247;SDS011;55064;49.636;12.164;2023-04-06T04:50:06;15.52;;;7.15;;
68247;SDS011;55064;49.636;12.164;2023-04-06T04:52:48;15.18;;;6.38;;
68247;SDS011;55064;49.636;12.164;2023-04-06T04:55:19;14.13;;;6.37;;
68247;SDS011;55064;49.636;12.164;2023-04-06T05:03:18;15.02;;;6.45;;
68247;SDS011;55064;49.636;12.164;2023-04-06T05:05:47;16.55;;;6.88;;
68247;SDS011;55064;49.636;12.164;2023-04-06T05:08:14;14.47;;;6.93;;
68247;SDS011;55064;49.636;12.164;2023-04-06T05:10:40;14.27;;;6.65;;
68247;SDS011;55064;49.636;12.164;2023-04-06T05:13:05;14.63;;;7.00;;
68247;SDS011;55064;49.636;12.164;2023-04-06T05:15:32;15.37;;;7.20;;
68247;SDS011;55064;49.636;12.164;2023-04-06T05:27:10;16.48;;;8.13;;
68247;SDS011;55064;49.636;12.164;2023-04-06T05:29:36;17.47;;;7.97;;
68247;SDS011;55064;49.636;12.164;2023-04-06T05:32:03;17.92;;;8.27;;
68247;SDS011;55064;49.636;12.164;2023-04-06T05:34:29;17.42;;;8.57;;
68247;SDS011;55064;49.636;12.164;2023-04-06T05:36:54;15.83;;;7.93;;
68247;SDS011;55064;49.636;12.164;2023-04-06T05:39:23;16.00;;;7.65;;
68247;SDS011;55064;49.636;12.164;2023-04-06T05:41:48;19.47;;;8.17;;
68247;SDS011;55064;49.636;12.164;2023-04-06T05:44:14;18.25;;;8.30;;
68247;SDS011;55064;49.636;12.164;2023-04-06T05:46:41;18.40;;;9.18;;
68247;SDS011;55064;49.636;12.164;2023-04-06T05:49:06;19.30;;;9.10;;
68247;SDS011;55064;49.636;12.164;2023-04-06T05:51:32;18.17;;;9.32;;
68247;SDS011;55064;49.636;12.164;2023-04-06T05:53:58;19.40;;;8.10;;
68247;SDS011;55064;49.636;12.164;2023-04-06T05:56:24;16.50;;;7.47;;
68247;SDS011;55064;49.636;12.164;2023-04-06T05:58:51;18.13;;;8.07;;
68247;SDS011;55064;49.636;12.164;2023-04-06T06:01:18;15.70;;;6.85;;
68247;SDS011;55064;49.636;12.164;2023-04-06T06:03:43;17.45;;;8.60;;
68247;SDS011;55064;49.636;12.164;2023-04-06T06:06:10;16.77;;;7.90;;
68247;SDS011;55064;49.636;12.164;2023-04-06T06:08:36;13.00;;;6.00;;
68247;SDS011;55064;49.636;12.164;2023-04-06T06:11:01;16.10;;;7.25;;
68247;SDS011;55064;49.636;12.164;2023-04-06T06:13:27;15.13;;;7.03;;
68247;SDS011;55064;49.636;12.164;2023-04-06T06:15:52;13.73;;;6.80;;
68247;SDS011;55064;49.636;12.164;2023-04-06T06:18:19;15.10;;;7.43;;
68247;SDS011;55064;49.636;12.164;2023-04-06T06:20:45;14.57;;;6.93;;
68247;SDS011;55064;49.636;12.164;2023-04-06T06:23:12;14.05;;;6.63;;
68247;SDS011;55064;49.636;12.164;2023-04-06T06:25:37;16.70;;;7.57;;
68247;SDS011;55064;49.636;12.164;2023-04-06T06:28:03;14.60;;;6.77;;
68247;SDS011;55064;49.636;12.164;2023-04-06T06:30:28;17.33;;;7.28;;
68247;SDS011;55064;49.636;12.164;2023-04-06T06:32:54;16.60;;;7.80;;
68247;SDS011;55064;49.636;12.164;2023-04-06T06:35:20;16.20;;;7.30;;
68247;SDS011;55064;49.636;12.164;2023-04-06T06:37:47;26.50;;;10.33;;
68247;SDS011;55064;49.636;12.164;2023-04-06T06:40:13;36.10;;;11.45;;
68247;SDS011;55064;49.636;12.164;2023-04-06T06:42:42;22.77;;;9.32;;
68247;SDS011;55064;49.636;12.164;2023-04-06T06:45:07;19.08;;;8.30;;
68247;SDS011;55064;49.636;12.164;2023-04-06T06:47:33;20.10;;;8.70;;
68247;SDS011;55064;49.636;12.164;2023-04-06T06:49:58;19.10;;;7.77;;
68247;SDS011;55064;49.636;12.164;2023-04-06T06:52:24;15.87;;;7.20;;
68247;SDS011;55064;49.636;12.164;2023-04-06T06:54:51;19.35;;;8.15;;
68247;SDS011;55064;49.636;12.164;2023-04-06T06:57:16;17.00;;;7.80;;
68247;SDS011;55064;49.636;12.164;2023-04-06T06:59:43;17.50;;;7.80;;
68247;SDS011;55064;49.636;12.164;2023-04-06T07:02:08;18.23;;;7.80;;
68247;SDS011;55064;49.636;12.164;2023-04-06T07:04:35;18.15;;;7.40;;
68247;SDS011;55064;49.636;12.164;2023-04-06T07:07:00;20.53;;;8.23;;
68247;SDS011;55064;49.636;12.164;2023-04-06T07:09:26;17.15;;;7.85;;
68247;SDS011;55064;49.636;12.164;2023-04-06T07:11:51;18.47;;;8.43;;
68247;SDS011;55064;49.636;12.164;2023-04-06T07:14:17;19.23;;;8.50;;
68247;SDS011;55064;49.636;12.164;2023-04-06T07:16:42;16.53;;;7.07;;
68247;SDS011;55064;49.636;12.164;2023-04-06T07:19:10;14.20;;;6.25;;
68247;SDS011;55064;49.636;12.164;2023-04-06T07:21:36;12.18;;;5.25;;
68247;SDS011;55064;49.636;12.164;2023-04-06T07:24:01;12.13;;;5.33;;
68247;SDS011;55064;49.636;12.164;2023-04-06T07:26:27;12.60;;;5.70;;
68247;SDS011;55064;49.636;12.164;2023-04-06T07:28:52;14.65;;;6.18;;
68247;SDS011;55064;49.636;12.164;2023-04-06T07:31:18;12.27;;;6.07;;
68247;SDS011;55064;49.636;12.164;2023-04-06T07:33:43;13.63;;;5.67;;
68247;SDS011;55064;49.636;12.164;2023-04-06T07:36:09;11.82;;;5.53;;
68247;SDS011;55064;49.636;12.164;2023-04-06T07:38:35;11.03;;;4.77;;
68247;SDS011;55064;49.636;12.164;2023-04-06T07:41:02;12.15;;;5.63;;
68247;SDS011;55064;49.636;12.164;2023-04-06T07:43:29;10.88;;;4.50;;
68247;SDS011;55064;49.636;12.164;2023-04-06T07:45:55;11.43;;;4.33;;
68247;SDS011;55064;49.636;12.164;2023-04-06T07:48:23;12.32;;;4.15;;
68247;SDS011;55064;49.636;12.164;2023-04-06T07:50:48;8.60;;;3.95;;
68247;SDS011;55064;49.636;12.164;2023-04-06T07:53:14;10.13;;;4.72;;
68247;SDS011;55064;49.636;12.164;2023-04-06T07:55:42;14.00;;;4.80;;
68247;SDS011;55064;49.636;12.164;2023-04-06T07:58:07;9.75;;;4.20;;
68247;SDS011;55064;49.636;12.164;2023-04-06T08:00:33;8.77;;;4.03;;
68247;SDS011;55064;49.636;12.164;2023-04-06T08:02:58;10.63;;;4.10;;
68247;SDS011;55064;49.636;12.164;2023-04-06T08:05:24;10.23;;;4.07;;
68247;SDS011;55064;49.636;12.164;2023-04-06T08:07:50;9.47;;;3.97;;
68247;SDS011;55064;49.636;12.164;2023-04-06T08:10:22;9.65;;;3.95;;
68247;SDS011;55064;49.636;12.164;2023-04-06T08:12:49;8.98;;;3.85;;
68247;SDS011;55064;49.636;12.164;2023-04-06T08:15:15;9.30;;;4.13;;
68247;SDS011;55064;49.636;12.164;2023-04-06T08:17:43;9.45;;;4.05;;
68247;SDS011;55064;49.636;12.164;2023-04-06T08:20:10;12.77;;;4.38;;
68247;SDS011;55064;49.636;12.164;2023-04-06T08:22:36;11.20;;;3.73;;
68247;SDS011;55064;49.636;12.164;2023-04-06T08:25:03;8.75;;;3.70;;
68247;SDS011;55064;49.636;12.164;2023-04-06T08:27:29;10.13;;;3.93;;
68247;SDS011;55064;49.636;12.164;2023-04-06T08:29:57;9.88;;;3.90;;
68247;SDS011;55064;49.636;12.164;2023-04-06T08:32:22;10.95;;;3.88;;
68247;SDS011;55064;49.636;12.164;2023-04-06T08:34:52;8.60;;;3.53;;
68247;SDS011;55064;49.636;12.164;2023-04-06T08:37:19;8.38;;;3.67;;
68247;SDS011;55064;49.636;12.164;2023-04-06T08:39:45;7.60;;;3.53;;
68247;SDS011;55064;49.636;12.164;2023-04-06T08:42:16;9.15;;;3.70;;
68247;SDS011;55064;49.636;12.164;2023-04-06T08:44:50;8.82;;;3.70;;
68247;SDS011;55064;49.636;12.164;2023-04-06T08:47:18;8.40;;;3.50;;
68247;SDS011;55064;49.636;12.164;2023-04-06T08:49:44;8.20;;;3.40;;
68247;SDS011;55064;49.636;12.164;2023-04-06T08:52:12;8.63;;;3.80;;
68247;SDS011;55064;49.636;12.164;2023-04-06T08:54:38;9.55;;;3.90;;
68247;SDS011;55064;49.636;12.164;2023-04-06T08:57:05;9.20;;;3.83;;
68247;SDS011;55064;49.636;12.164;2023-04-06T08:59:32;12.37;;;4.13;;
68247;SDS011;55064;49.636;12.164;2023-04-06T09:01:57;9.82;;;3.65;;
68247;SDS011;55064;49.636;12.164;2023-04-06T09:04:29;9.00;;;3.38;;
68247;SDS011;55064;49.636;12.164;2023-04-06T09:06:56;9.77;;;3.77;;
68247;SDS011;55064;49.636;12.164;2023-04-06T09:09:22;9.27;;;3.53;;
68247;SDS011;55064;49.636;12.164;2023-04-06T09:11:50;10.38;;;4.25;;
68247;SDS011;55064;49.636;12.164;2023-04-06T09:14:16;12.20;;;4.50;;
68247;SDS011;55064;49.636;12.164;2023-04-06T09:17:19;10.23;;;4.00;;
68247;SDS011;55064;49.636;12.164;2023-04-06T09:19:48;12.10;;;4.93;;
68247;SDS011;55064;49.636;12.164;2023-04-06T09:22:15;12.55;;;4.47;;
68247;SDS011;55064;49.636;12.164;2023-04-06T09:24:41;13.40;;;4.33;;
68247;SDS011;55064;49.636;12.164;2023-04-06T09:27:08;8.38;;;3.53;;
68247;SDS011;55064;49.636;12.164;2023-04-06T09:29:34;10.10;;;3.93;;
68247;SDS011;55064;49.636;12.164;2023-04-06T09:32:05;9.20;;;3.83;;
68247;SDS011;55064;49.636;12.164;2023-04-06T09:34:33;10.85;;;4.10;;
68247;SDS011;55064;49.636;12.164;2023-04-06T09:36:59;10.57;;;3.80;;
68247;SDS011;55064;49.636;12.164;2023-04-06T09:39:25;12.83;;;4.40;;
68247;SDS011;55064;49.636;12.164;2023-04-06T09:41:55;10.60;;;4.32;;
68247;SDS011;55064;49.636;12.164;2023-04-06T09:44:21;9.88;;;4.55;;
68247;SDS011;55064;49.636;12.164;2023-04-06T09:46:48;12.95;;;5.00;;
68247;SDS011;55064;49.636;12.164;2023-04-06T09:49:14;11.40;;;4.60;;
68247;SDS011;55064;49.636;12.164;2023-04-06T09:51:50;11.38;;;4.57;;
68247;SDS011;55064;49.636;12.164;2023-04-06T09:54:21;10.38;;;4.93;;
68247;SDS011;55064;49.636;12.164;2023-04-06T09:56:54;12.43;;;4.77;;
68247;SDS011;55064;49.636;12.164;2023-04-06T09:59:44;9.75;;;4.80;;
68247;SDS011;55064;49.636;12.164;2023-04-06T10:02:18;11.50;;;5.55;;
68247;SDS011;55064;49.636;12.164;2023-04-06T10:04:56;11.85;;;5.28;;
68247;SDS011;55064;49.636;12.164;2023-04-06T10:07:29;10.02;;;5.05;;
68247;SDS011;55064;49.636;12.164;2023-04-06T10:09:58;10.70;;;5.20;;
68247;SDS011;55064;49.636;12.164;2023-04-06T10:12:31;9.35;;;4.65;;
68247;SDS011;55064;49.636;12.164;2023-04-06T10:15:06;10.95;;;5.22;;
68247;SDS011;55064;49.636;12.164;2023-04-06T10:17:35;9.73;;;4.78;;
68247;SDS011;55064;49.636;12.164;2023-04-06T10:28:08;11.10;;;4.70;;
68247;SDS011;55064;49.636;12.164;2023-04-06T10:30:41;11.23;;;4.88;;
68247;SDS011;55064;49.636;12.164;2023-04-06T10:33:15;9.55;;;4.60;;
68247;SDS011;55064;49.636;12.164;2023-04-06T10:35:46;9.40;;;4.13;;
68247;SDS011;55064;49.636;12.164;2023-04-06T10:38:18;10.77;;;4.57;;
68247;SDS011;55064;49.636;12.164;2023-04-06T10:40:48;10.45;;;5.18;;
68247;SDS011;55064;49.636;12.164;2023-04-06T10:43:20;9.30;;;4.40;;
68247;SDS011;55064;49.636;12.164;2023-04-06T10:45:54;10.77;;;4.60;;
68247;SDS011;55064;49.636;12.164;2023-04-06T10:48:24;8.93;;;4.27;;
68247;SDS011;55064;49.636;12.164;2023-04-06T10:50:54;9.65;;;4.20;;
68247;SDS011;55064;49.636;12.164;2023-04-06T10:53:22;11.40;;;4.90;;
68247;SDS011;55064;49.636;12.164;2023-04-06T10:56:02;9.30;;;3.95;;
68247;SDS011;55064;49.636;12.164;2023-04-06T11:01:09;8.70;;;3.77;;
68247;SDS011;55064;49.636;12.164;2023-04-06T11:04:02;9.35;;;4.80;;
68247;SDS011;55064;49.636;12.164;2023-04-06T11:06:32;8.13;;;4.40;;
68247;SDS011;55064;49.636;12.164;2023-04-06T11:08:59;8.88;;;4.40;;
68247;SDS011;55064;49.636;12.164;2023-04-06T11:11:25;9.57;;;4.70;;
68247;SDS011;55064;49.636;12.164;2023-04-06T11:19:03;9.55;;;4.68;;
68247;SDS011;55064;49.636;12.164;2023-04-06T11:21:39;9.48;;;4.53;;
68247;SDS011;55064;49.636;12.164;2023-04-06T11:24:24;9.55;;;4.30;;
68247;SDS011;55064;49.636;12.164;2023-04-06T11:26:53;10.70;;;4.50;;
68247;SDS011;55064;49.636;12.164;2023-04-06T11:29:20;10.05;;;4.40;;
68247;SDS011;55064;49.636;12.164;2023-04-06T11:31:50;9.32;;;4.22;;
68247;SDS011;55064;49.636;12.164;2023-04-06T11:34:22;10.75;;;4.80;;
68247;SDS011;55064;49.636;12.164;2023-04-06T11:36:56;10.38;;;4.47;;
68247;SDS011;55064;49.636;12.164;2023-04-06T11:39:24;8.73;;;4.33;;
68247;SDS011;55064;49.636;12.164;2023-04-06T11:41:54;9.50;;;4.03;;
68247;SDS011;55064;49.636;12.164;2023-04-06T11:44:35;9.80;;;4.60;;
68247;SDS011;55064;49.636;12.164;2023-04-06T11:47:07;8.68;;;4.22;;
68247;SDS011;55064;49.636;12.164;2023-04-06T11:49:38;9.25;;;4.38;;
68247;SDS011;55064;49.636;12.164;2023-04-06T11:52:17;10.27;;;4.50;;
68247;SDS011;55064;49.636;12.164;2023-04-06T11:54:45;10.32;;;4.60;;
68247;SDS011;55064;49.636;12.164;2023-04-06T11:57:13;9.63;;;4.30;;
68247;SDS011;55064;49.636;12.164;2023-04-06T11:59:41;8.45;;;4.30;;
68247;SDS011;55064;49.636;12.164;2023-04-06T12:02:09;9.82;;;4.60;;
68247;SDS011;55064;49.636;12.164;2023-04-06T12:04:35;9.20;;;4.33;;
68247;SDS011;55064;49.636;12.164;2023-04-06T12:09:36;10.18;;;4.40;;
68247;SDS011;55064;49.636;12.164;2023-04-06T12:14:37;9.05;;;4.68;;
68247;SDS011;55064;49.636;12.164;2023-04-06T12:17:03;8.65;;;4.15;;
68247;SDS011;55064;49.636;12.164;2023-04-06T12:19:29;9.60;;;4.20;;
68247;SDS011;55064;49.636;12.164;2023-04-06T12:21:57;8.38;;;4.38;;
68247;SDS011;55064;49.636;12.164;2023-04-06T12:24:25;8.18;;;4.20;;
68247;SDS011;55064;49.636;12.164;2023-04-06T12:26:53;9.40;;;4.60;;
68247;SDS011;55064;49.636;12.164;2023-04-06T12:29:25;8.20;;;4.35;;
68247;SDS011;55064;49.636;12.164;2023-04-06T12:31:52;11.17;;;4.50;;
68247;SDS011;55064;49.636;12.164;2023-04-06T12:34:20;9.48;;;4.45;;
68247;SDS011;55064;49.636;12.164;2023-04-06T12:36:47;8.75;;;4.78;;
68247;SDS011;55064;49.636;12.164;2023-04-06T12:39:13;10.88;;;4.53;;
68247;SDS011;55064;49.636;12.164;2023-04-06T12:41:51;7.68;;;4.10;;
68247;SDS011;55064;49.636;12.164;2023-04-06T12:44:19;7.00;;;3.60;;
68247;SDS011;55064;49.636;12.164;2023-04-06T12:46:45;8.63;;;3.83;;
68247;SDS011;55064;49.636;12.164;2023-04-06T12:49:13;8.68;;;4.13;;
68247;SDS011;55064;49.636;12.164;2023-04-06T12:51:41;7.38;;;3.80;;
68247;SDS011;55064;49.636;12.164;2023-04-06T12:54:07;8.87;;;4.00;;
68247;SDS011;55064;49.636;12.164;2023-04-06T12:56:34;9.70;;;4.30;;
68247;SDS011;55064;49.636;12.164;2023-04-06T12:59:01;9.93;;;4.60;;
68247;SDS011;55064;49.636;12.164;2023-04-06T13:01:29;7.95;;;4.45;;
68247;SDS011;55064;49.636;12.164;2023-04-06T13:03:56;8.85;;;4.28;;
68247;SDS011;55064;49.636;12.164;2023-04-06T13:06:24;8.33;;;4.27;;
68247;SDS011;55064;49.636;12.164;2023-04-06T13:08:54;9.45;;;4.18;;
68247;SDS011;55064;49.636;12.164;2023-04-06T13:11:20;8.20;;;4.20;;
68247;SDS011;55064;49.636;12.164;2023-04-06T13:13:49;8.38;;;4.00;;
68247;SDS011;55064;49.636;12.164;2023-04-06T13:16:21;9.27;;;4.10;;
68247;SDS011;55064;49.636;12.164;2023-04-06T13:18:47;9.53;;;4.40;;
68247;SDS011;55064;49.636;12.164;2023-04-06T13:21:14;9.18;;;4.30;;
68247;SDS011;55064;49.636;12.164;2023-04-06T13:23:45;8.95;;;4.00;;
68247;SDS011;55064;49.636;12.164;2023-04-06T13:26:21;10.18;;;4.28;;
68247;SDS011;55064;49.636;12.164;2023-04-06T13:28:46;10.43;;;4.40;;
68247;SDS011;55064;49.636;12.164;2023-04-06T13:31:14;7.87;;;4.07;;
68247;SDS011;55064;49.636;12.164;2023-04-06T13:33:46;7.50;;;3.63;;
68247;SDS011;55064;49.636;12.164;2023-04-06T13:36:12;9.38;;;4.03;;
68247;SDS011;55064;49.636;12.164;2023-04-06T13:38:45;9.30;;;4.50;;
68247;SDS011;55064;49.636;12.164;2023-04-06T13:41:21;7.90;;;4.00;;
68247;SDS011;55064;49.636;12.164;2023-04-06T13:43:49;7.90;;;4.40;;
68247;SDS011;55064;49.636;12.164;2023-04-06T13:46:14;8.90;;;4.20;;
68247;SDS011;55064;49.636;12.164;2023-04-06T13:48:44;8.10;;;4.25;;
68247;SDS011;55064;49.636;12.164;2023-04-06T13:51:10;10.35;;;4.47;;
68247;SDS011;55064;49.636;12.164;2023-04-06T13:53:38;9.03;;;4.40;;
68247;SDS011;55064;49.636;12.164;2023-04-06T13:56:05;8.45;;;4.00;;
68247;SDS011;55064;49.636;12.164;2023-04-06T13:58:32;8.50;;;3.88;;
68247;SDS011;55064;49.636;12.164;2023-04-06T14:01:06;8.68;;;4.40;;
68247;SDS011;55064;49.636;12.164;2023-04-06T14:03:36;9.25;;;4.50;;
68247;SDS011;55064;49.636;12.164;2023-04-06T14:06:09;7.87;;;4.50;;
68247;SDS011;55064;49.636;12.164;2023-04-06T14:08:37;9.02;;;4.28;;
68247;SDS011;55064;49.636;12.164;2023-04-06T14:11:10;8.43;;;4.43;;
68247;SDS011;55064;49.636;12.164;2023-04-06T14:13:39;9.93;;;4.27;;
68247;SDS011;55064;49.636;12.164;2023-04-06T14:16:06;8.45;;;4.32;;
68247;SDS011;55064;49.636;12.164;2023-04-06T14:18:32;8.95;;;4.63;;
68247;SDS011;55064;49.636;12.164;2023-04-06T14:20:59;7.80;;;4.20;;
68247;SDS011;55064;49.636;12.164;2023-04-06T14:23:27;8.57;;;4.07;;
68247;SDS011;55064;49.636;12.164;2023-04-06T14:26:06;7.93;;;4.07;;
68247;SDS011;55064;49.636;12.164;2023-04-06T14:28:34;7.82;;;3.97;;
68247;SDS011;55064;49.636;12.164;2023-04-06T14:31:02;8.57;;;4.25;;
68247;SDS011;55064;49.636;12.164;2023-04-06T14:33:57;9.68;;;4.32;;
68247;SDS011;55064;49.636;12.164;2023-04-06T14:36:25;9.82;;;4.72;;
68247;SDS011;55064;49.636;12.164;2023-04-06T14:38:58;8.77;;;4.10;;
68247;SDS011;55064;49.636;12.164;2023-04-06T14:41:25;7.93;;;4.30;;
68247;SDS011;55064;49.636;12.164;2023-04-06T14:43:51;9.32;;;4.65;;
68247;SDS011;55064;49.636;12.164;2023-04-06T14:46:20;9.57;;;4.00;;
68247;SDS011;55064;49.636;12.164;2023-04-06T14:48:49;9.63;;;4.10;;
68247;SDS011;55064;49.636;12.164;2023-04-06T14:51:15;8.68;;;3.78;;
68247;SDS011;55064;49.636;12.164;2023-04-06T14:53:41;8.55;;;3.83;;
68247;SDS011;55064;49.636;12.164;2023-04-06T14:56:08;7.70;;;4.20;;
68247;SDS011;55064;49.636;12.164;2023-04-06T14:58:34;7.53;;;3.80;;
68247;SDS011;55064;49.636;12.164;2023-04-06T15:01:00;9.13;;;4.30;;
68247;SDS011;55064;49.636;12.164;2023-04-06T15:03:28;9.13;;;4.38;;
68247;SDS011;55064;49.636;12.164;2023-04-06T15:05:55;8.25;;;4.25;;
68247;SDS011;55064;49.636;12.164;2023-04-06T15:08:23;9.70;;;3.93;;
68247;SDS011;55064;49.636;12.164;2023-04-06T15:10:52;9.02;;;3.97;;
68247;SDS011;55064;49.636;12.164;2023-04-06T15:13:19;7.95;;;4.00;;
68247;SDS011;55064;49.636;12.164;2023-04-06T15:15:49;9.00;;;3.80;;
68247;SDS011;55064;49.636;12.164;2023-04-06T15:18:15;7.60;;;3.83;;
68247;SDS011;55064;49.636;12.164;2023-04-06T15:20:48;7.57;;;3.70;;
68247;SDS011;55064;49.636;12.164;2023-04-06T15:23:26;9.27;;;4.20;;
68247;SDS011;55064;49.636;12.164;2023-04-06T15:32:28;8.52;;;4.20;;
68247;SDS011;55064;49.636;12.164;2023-04-06T15:34:58;8.48;;;3.70;;
68247;SDS011;55064;49.636;12.164;2023-04-06T15:37:24;7.97;;;3.67;;
68247;SDS011;55064;49.636;12.164;2023-04-06T15:39:56;9.17;;;4.30;;
68247;SDS011;55064;49.636;12.164;2023-04-06T15:42:24;8.55;;;3.85;;
68247;SDS011;55064;49.636;12.164;2023-04-06T15:44:51;7.87;;;3.50;;